Time;durP1;ratioP1;P1;durP2;ratioP2;P2;SDS_P1;SDS_P2;PMS_P1;PMS_P2;Temp;Humidity;BMP_temperature;BMP_pressure;BME280_temperature;BME280_humidity;BME280_pressure;Samples;Min_cycle;Max_cycle;Signal;HPM_P1;HPM_P2
2023/03/01 00:02:16;;;;;;;23.27;14.60;;;1.60;24.60;;;;;;5006364;28;20999;-61
2023/03/01 00:04:43;;;;;;;22.40;13.77;;;1.60;24.80;;;;;;5011632;28;20464;-61
2023/03/01 00:07:10;;;;;;;22.13;14.30;;;1.70;24.90;;;;;;5005867;28;20464;-61
2023/03/01 00:09:37;;;;;;;25.90;15.10;;;1.70;24.90;;;;;;5006902;28;20463;-61
2023/03/01 00:12:06;;;;;;;23.07;15.30;;;1.70;25.00;;;;;;5010441;28;20479;-61
2023/03/01 00:14:33;;;;;;;21.57;13.10;;;1.60;25.00;;;;;;5008310;28;20482;-61
2023/03/01 00:17:01;;;;;;;22.83;13.50;;;1.70;25.10;;;;;;5010582;28;20999;-61
2023/03/01 00:19:28;;;;;;;22.57;14.90;;;1.70;25.10;;;;;;5007081;28;20578;-60
2023/03/01 00:21:54;;;;;;;22.43;14.87;;;1.70;25.10;;;;;;5009406;28;20491;-60
2023/03/01 00:24:21;;;;;;;23.37;13.90;;;1.70;25.00;;;;;;5006294;28;20468;-60
2023/03/01 00:26:48;;;;;;;26.70;15.60;;;1.70;25.10;;;;;;5007972;28;20831;-60
2023/03/01 00:29:16;;;;;;;24.10;14.37;;;1.70;25.20;;;;;;5008180;28;20460;-60
2023/03/01 00:31:43;;;;;;;24.70;14.83;;;1.70;25.10;;;;;;5007100;28;20489;-60
2023/03/01 00:34:10;;;;;;;22.23;14.33;;;1.80;25.10;;;;;;5009038;28;20842;-61
2023/03/01 00:36:38;;;;;;;25.17;15.03;;;1.80;25.20;;;;;;5008861;28;20471;-61
2023/03/01 00:39:06;;;;;;;24.27;14.70;;;1.80;25.30;;;;;;5006378;28;20463;-60
2023/03/01 00:41:35;;;;;;;28.63;16.63;;;1.80;25.30;;;;;;5004499;28;20485;-60
2023/03/01 00:44:03;;;;;;;30.43;16.53;;;1.80;25.30;;;;;;5007651;28;20460;-61
2023/03/01 00:46:31;;;;;;;24.90;16.43;;;1.80;25.50;;;;;;5007590;28;20468;-61
2023/03/01 00:48:57;;;;;;;22.60;14.00;;;1.80;25.40;;;;;;5005870;28;20474;-61
2023/03/01 00:51:26;;;;;;;24.07;14.57;;;1.80;25.50;;;;;;5006185;28;20484;-61
2023/03/01 00:53:54;;;;;;;26.80;15.17;;;1.80;25.50;;;;;;5004837;28;20833;-60
2023/03/01 00:56:22;;;;;;;25.93;16.40;;;1.90;25.50;;;;;;5004850;28;20464;-61
2023/03/01 00:58:48;;;;;;;24.33;15.60;;;1.90;25.60;;;;;;4999577;28;20475;-61
2023/03/01 01:01:18;;;;;;;26.90;15.63;;;1.90;25.50;;;;;;5006958;28;20476;-60
2023/03/01 01:03:48;;;;;;;24.30;14.67;;;1.90;25.60;;;;;;5003222;28;20475;-61
2023/03/01 01:06:16;;;;;;;27.43;15.03;;;1.90;25.60;;;;;;5007112;28;20461;-61
2023/03/01 01:08:43;;;;;;;26.50;15.80;;;1.90;25.50;;;;;;5001972;28;20467;-61
2023/03/01 01:11:10;;;;;;;26.70;16.70;;;1.90;25.60;;;;;;5007822;28;20483;-61
2023/03/01 01:13:37;;;;;;;25.20;16.30;;;1.90;25.80;;;;;;5000005;28;20494;-61
2023/03/01 01:16:04;;;;;;;23.87;15.80;;;1.90;25.80;;;;;;5006641;28;20574;-61
2023/03/01 01:18:31;;;;;;;28.13;15.87;;;1.90;25.70;;;;;;5008803;28;20465;-61
2023/03/01 01:21:05;;;;;;;30.50;15.67;;;1.90;25.70;;;;;;5006855;28;20487;-61
2023/03/01 01:23:31;;;;;;;25.43;16.50;;;1.90;25.70;;;;;;5005970;28;20496;-61
2023/03/01 01:25:58;;;;;;;28.07;17.00;;;1.90;25.60;;;;;;5007224;28;20468;-61
2023/03/01 01:28:25;;;;;;;25.20;14.80;;;1.90;25.70;;;;;;5003201;28;20467;-61
2023/03/01 01:30:51;;;;;;;25.57;16.37;;;1.90;25.80;;;;;;5007219;28;20491;-61
2023/03/01 01:33:18;;;;;;;24.13;15.47;;;1.90;25.90;;;;;;5009027;28;20476;-61
2023/03/01 01:35:46;;;;;;;26.87;16.53;;;1.90;25.80;;;;;;5007655;28;20500;-61
2023/03/01 01:38:15;;;;;;;22.90;15.23;;;1.90;25.80;;;;;;5001467;28;20563;-61
2023/03/01 01:40:46;;;;;;;26.40;15.60;;;2.00;25.80;;;;;;5001775;28;20496;-61
2023/03/01 01:43:20;;;;;;;26.57;16.87;;;2.00;25.80;;;;;;5008424;28;20467;-61
2023/03/01 01:45:46;;;;;;;25.90;15.80;;;2.00;25.80;;;;;;5006804;28;20472;-61
2023/03/01 01:48:19;;;;;;;27.53;16.67;;;2.00;25.80;;;;;;5008319;28;20463;-61
2023/03/01 01:50:50;;;;;;;26.83;15.60;;;1.90;25.80;;;;;;5005414;28;20475;-62
2023/03/01 01:53:20;;;;;;;27.43;16.40;;;1.90;25.80;;;;;;5003155;28;20468;-61
2023/03/01 01:55:52;;;;;;;25.33;14.73;;;1.90;25.90;;;;;;5007951;28;20456;-61
2023/03/01 01:58:22;;;;;;;26.23;16.57;;;2.00;26.00;;;;;;4998601;28;20551;-61
2023/03/01 02:00:49;;;;;;;29.60;17.73;;;1.90;26.00;;;;;;5003972;28;20469;-61
2023/03/01 02:03:21;;;;;;;28.47;17.00;;;2.00;26.10;;;;;;5005743;28;20476;-61
2023/03/01 02:05:53;;;;;;;27.77;16.70;;;1.90;26.20;;;;;;5003117;28;20821;-60
2023/03/01 02:08:23;;;;;;;22.37;15.80;;;2.00;26.20;;;;;;5005375;28;20463;-61
2023/03/01 02:10:51;;;;;;;26.70;15.80;;;2.00;26.20;;;;;;5007177;28;20475;-60
2023/03/01 02:13:18;;;;;;;22.70;15.10;;;2.00;26.20;;;;;;5005967;28;20456;-61
2023/03/01 02:15:45;;;;;;;27.00;16.37;;;1.90;26.20;;;;;;5001132;28;20967;-61
2023/03/01 02:18:17;;;;;;;27.53;17.90;;;1.90;26.20;;;;;;5000009;28;20452;-61
2023/03/01 02:20:51;;;;;;;27.23;16.90;;;1.90;26.20;;;;;;5000277;28;20491;-61
2023/03/01 02:23:18;;;;;;;25.40;16.53;;;1.90;26.10;;;;;;5004186;28;20471;-60
2023/03/01 02:25:52;;;;;;;29.23;17.43;;;1.90;26.10;;;;;;5003249;28;20464;-60
2023/03/01 02:28:30;;;;;;;27.13;17.00;;;1.90;26.10;;;;;;5007187;28;20489;-60
2023/03/01 02:33:43;;;;;;;25.93;16.93;;;1.90;26.00;;;;;;5000183;28;20487;-61
2023/03/01 02:36:14;;;;;;;27.97;16.63;;;1.90;26.10;;;;;;5006158;28;20467;-60
2023/03/01 02:38:41;;;;;;;29.73;17.90;;;1.90;26.20;;;;;;5003737;28;20519;-60
2023/03/01 02:41:09;;;;;;;27.40;16.30;;;1.90;26.20;;;;;;5007260;28;20565;-61
2023/03/01 02:43:37;;;;;;;27.07;16.50;;;1.90;26.20;;;;;;5002176;28;20468;-61
2023/03/01 02:46:06;;;;;;;26.90;16.63;;;1.90;26.10;;;;;;5002366;28;20559;-61
2023/03/01 02:48:41;;;;;;;27.77;17.97;;;1.90;26.10;;;;;;5006556;28;20967;-61
2023/03/01 02:51:18;;;;;;;29.23;15.77;;;1.90;26.00;;;;;;5003143;28;20473;-61
2023/03/01 02:53:55;;;;;;;26.73;17.73;;;1.90;26.10;;;;;;5004337;28;21018;-61
2023/03/01 02:56:22;;;;;;;27.27;16.63;;;1.90;26.10;;;;;;5001572;28;21497;-61
2023/03/01 02:58:51;;;;;;;28.50;18.00;;;1.80;26.10;;;;;;5004761;28;20467;-61
2023/03/01 03:01:18;;;;;;;24.83;16.03;;;1.80;26.10;;;;;;4994326;28;20483;-61
2023/03/01 03:03:45;;;;;;;29.40;17.27;;;1.90;26.10;;;;;;5008354;28;20463;-61
2023/03/01 03:06:12;;;;;;;26.20;16.80;;;1.90;26.10;;;;;;5004561;28;20462;-61
2023/03/01 03:08:39;;;;;;;25.90;15.47;;;1.90;26.20;;;;;;5003925;28;20947;-62
2023/03/01 03:11:05;;;;;;;25.40;16.63;;;1.90;26.10;;;;;;5006653;28;20479;-61
2023/03/01 03:13:32;;;;;;;27.90;17.90;;;1.90;26.10;;;;;;5006962;28;20525;-61
2023/03/01 03:16:00;;;;;;;26.20;16.73;;;1.90;26.00;;;;;;5006887;28;20483;-61
2023/03/01 03:18:27;;;;;;;25.27;15.10;;;1.90;26.10;;;;;;5005619;28;20464;-61
2023/03/01 03:20:55;;;;;;;26.17;16.90;;;1.80;26.30;;;;;;5003368;28;20481;-61
2023/03/01 03:23:22;;;;;;;32.43;18.87;;;1.80;26.10;;;;;;5006632;28;21006;-61
2023/03/01 03:25:50;;;;;;;30.23;18.83;;;1.80;26.10;;;;;;5008669;28;20451;-61
2023/03/01 03:28:17;;;;;;;26.40;17.57;;;1.80;26.10;;;;;;5004909;28;20463;-61
2023/03/01 03:30:44;;;;;;;26.80;17.37;;;1.80;25.90;;;;;;4999225;28;20483;-61
2023/03/01 03:33:13;;;;;;;28.17;17.47;;;1.80;25.90;;;;;;5002835;28;20475;-61
2023/03/01 03:35:42;;;;;;;25.93;16.67;;;1.80;26.00;;;;;;5007723;28;20459;-61
2023/03/01 03:38:15;;;;;;;29.93;17.50;;;1.90;26.00;;;;;;5005057;28;20964;-60
2023/03/01 03:40:44;;;;;;;27.13;16.53;;;1.90;26.00;;;;;;4998882;28;20480;-61
2023/03/01 03:43:13;;;;;;;27.43;18.43;;;1.80;25.90;;;;;;5000054;28;20524;-61
2023/03/01 03:45:40;;;;;;;26.23;16.80;;;1.90;25.90;;;;;;5004760;28;20862;-61
2023/03/01 03:48:10;;;;;;;26.90;16.80;;;1.90;25.70;;;;;;5004954;28;20463;-61
2023/03/01 03:50:39;;;;;;;29.23;17.93;;;1.90;25.70;;;;;;5003370;28;21022;-62
2023/03/01 03:53:09;;;;;;;27.70;17.10;;;1.90;25.60;;;;;;5007201;28;20474;-61
2023/03/01 03:55:38;;;;;;;28.17;17.67;;;1.90;25.60;;;;;;5003827;28;20456;-61
2023/03/01 03:58:07;;;;;;;25.63;16.83;;;1.90;26.10;;;;;;5007054;28;20874;-61
2023/03/01 04:00:35;;;;;;;28.20;18.73;;;1.90;25.50;;;;;;5005045;28;21003;-61
2023/03/01 04:03:02;;;;;;;31.00;17.63;;;1.90;25.50;;;;;;5004136;28;20542;-61
2023/03/01 04:05:29;;;;;;;24.33;16.00;;;1.90;25.70;;;;;;5006143;28;20882;-61
2023/03/01 04:08:06;;;;;;;26.17;16.37;;;1.90;25.60;;;;;;5003196;28;20467;-61
2023/03/01 04:10:35;;;;;;;25.80;16.77;;;1.80;25.70;;;;;;5002113;28;20562;-61
2023/03/01 04:13:02;;;;;;;29.40;17.60;;;1.90;25.60;;;;;;5002312;28;20452;-61
2023/03/01 04:15:29;;;;;;;27.73;16.70;;;1.80;25.60;;;;;;5000065;28;20937;-61
2023/03/01 04:17:56;;;;;;;27.00;16.10;;;1.90;25.70;;;;;;5005493;28;20514;-61
2023/03/01 04:20:25;;;;;;;28.27;17.73;;;1.90;25.70;;;;;;5004469;28;20475;-61
2023/03/01 04:22:53;;;;;;;26.07;17.10;;;1.80;25.70;;;;;;5010729;28;21142;-61
2023/03/01 04:25:21;;;;;;;26.23;16.10;;;1.90;25.80;;;;;;5003308;28;20460;-60
2023/03/01 04:27:47;;;;;;;25.57;16.60;;;1.90;25.70;;;;;;5006999;28;20460;-60
2023/03/01 04:30:14;;;;;;;25.80;16.47;;;1.90;25.80;;;;;;5001759;28;20510;-62
2023/03/01 04:32:41;;;;;;;27.53;17.13;;;1.90;25.80;;;;;;5006122;28;20943;-60
2023/03/01 04:35:09;;;;;;;26.93;17.10;;;1.90;25.80;;;;;;5003832;28;20452;-60
2023/03/01 04:37:36;;;;;;;30.77;18.50;;;1.90;25.80;;;;;;5004078;28;20466;-60
2023/03/01 04:40:12;;;;;;;25.60;15.77;;;1.90;25.90;;;;;;5004353;28;20464;-60
2023/03/01 04:42:40;;;;;;;25.57;17.00;;;1.80;25.90;;;;;;5003379;28;21081;-61
2023/03/01 04:45:12;;;;;;;25.93;16.63;;;1.90;25.90;;;;;;5003156;28;20470;-60
2023/03/01 04:47:40;;;;;;;27.67;17.97;;;1.90;25.90;;;;;;5007405;28;20456;-60
2023/03/01 04:50:08;;;;;;;25.63;17.03;;;1.90;25.90;;;;;;5005262;28;20466;-61
2023/03/01 04:52:35;;;;;;;23.27;16.23;;;1.90;25.90;;;;;;5006729;28;20483;-60
2023/03/01 04:55:03;;;;;;;26.60;15.13;;;1.90;25.90;;;;;;5002380;28;20810;-60
2023/03/01 04:57:30;;;;;;;29.13;16.97;;;1.90;25.90;;;;;;5004517;28;20456;-59
2023/03/01 04:59:58;;;;;;;32.67;18.00;;;1.90;25.70;;;;;;4997792;28;20455;-61
2023/03/01 05:02:25;;;;;;;28.23;17.27;;;1.90;25.80;;;;;;5000903;28;20476;-60
2023/03/01 05:04:52;;;;;;;25.97;17.00;;;1.90;25.90;;;;;;4999146;28;20463;-60
2023/03/01 05:07:19;;;;;;;25.60;16.23;;;1.90;25.80;;;;;;4996923;28;20960;-60
2023/03/01 05:09:46;;;;;;;28.57;17.57;;;1.90;25.70;;;;;;4992759;28;20480;-62
2023/03/01 05:12:13;;;;;;;27.57;17.10;;;1.90;25.80;;;;;;5001322;28;20476;-62
2023/03/01 05:14:40;;;;;;;27.50;16.83;;;1.90;25.80;;;;;;5007849;28;20471;-62
2023/03/01 05:17:08;;;;;;;28.10;17.13;;;1.90;25.70;;;;;;5003619;28;20463;-62
2023/03/01 05:19:36;;;;;;;28.63;16.63;;;1.90;25.80;;;;;;5007817;28;20466;-62
2023/03/01 05:22:03;;;;;;;31.03;17.87;;;1.90;25.80;;;;;;5009120;28;20479;-62
2023/03/01 05:24:32;;;;;;;22.93;16.47;;;1.90;25.90;;;;;;5007635;28;20460;-62
2023/03/01 05:26:59;;;;;;;26.73;16.23;;;1.90;26.00;;;;;;5008403;28;20464;-62
2023/03/01 05:29:27;;;;;;;26.63;16.50;;;1.90;25.90;;;;;;5007748;28;20994;-62
2023/03/01 05:31:54;;;;;;;29.07;17.60;;;1.90;26.00;;;;;;5009895;28;20487;-62
2023/03/01 05:34:25;;;;;;;26.57;18.20;;;1.90;26.00;;;;;;5004224;28;20467;-62
2023/03/01 05:36:52;;;;;;;26.93;16.70;;;1.90;26.00;;;;;;5005344;28;20494;-62
2023/03/01 05:39:21;;;;;;;24.73;15.60;;;1.90;25.90;;;;;;5008334;28;20509;-63
2023/03/01 05:41:47;;;;;;;27.73;18.43;;;1.80;25.90;;;;;;5003263;28;20487;-63
2023/03/01 05:44:14;;;;;;;25.67;15.80;;;1.90;26.00;;;;;;5006591;28;20467;-63
2023/03/01 05:46:41;;;;;;;26.47;16.80;;;1.90;26.00;;;;;;5008025;28;20463;-63
2023/03/01 05:49:08;;;;;;;30.50;17.80;;;1.80;25.90;;;;;;5005937;28;20480;-63
2023/03/01 05:51:36;;;;;;;29.43;19.07;;;1.80;25.90;;;;;;5009094;28;20630;-63
2023/03/01 05:54:05;;;;;;;28.17;16.70;;;1.80;26.10;;;;;;5007426;28;20466;-63
2023/03/01 05:56:34;;;;;;;27.20;15.20;;;1.80;26.10;;;;;;5004970;28;20456;-63
2023/03/01 05:59:01;;;;;;;30.40;18.50;;;1.90;26.00;;;;;;5007227;28;20452;-63
2023/03/01 06:01:29;;;;;;;25.70;16.80;;;1.80;26.00;;;;;;5006510;28;20492;-63
2023/03/01 06:03:56;;;;;;;27.47;17.33;;;1.80;26.00;;;;;;5009238;28;20530;-62
2023/03/01 06:06:23;;;;;;;29.17;16.20;;;1.80;25.90;;;;;;5006276;28;20515;-63
2023/03/01 06:08:52;;;;;;;24.77;16.80;;;1.80;26.00;;;;;;5009638;28;20463;-63
2023/03/01 06:11:18;;;;;;;26.83;16.33;;;1.80;25.80;;;;;;5008281;28;20491;-64
2023/03/01 06:13:46;;;;;;;28.60;17.87;;;1.80;25.80;;;;;;5008321;28;20456;-64
2023/03/01 06:16:13;;;;;;;26.27;16.93;;;1.80;25.70;;;;;;5003123;28;20494;-63
2023/03/01 06:18:39;;;;;;;25.33;16.47;;;1.80;25.80;;;;;;5009590;28;20459;-63
2023/03/01 06:21:07;;;;;;;27.17;16.60;;;1.70;25.70;;;;;;5005174;28;20487;-64
2023/03/01 06:23:34;;;;;;;29.10;15.93;;;1.70;25.70;;;;;;5008700;28;20483;-64
2023/03/01 06:26:06;;;;;;;27.23;16.50;;;1.70;25.80;;;;;;5005123;28;20459;-64
2023/03/01 06:28:33;;;;;;;25.10;17.30;;;1.70;25.90;;;;;;5009049;28;20448;-64
2023/03/01 06:31:00;;;;;;;26.97;18.50;;;1.70;25.80;;;;;;4999736;28;20464;-63
2023/03/01 06:33:26;;;;;;;26.30;16.30;;;1.70;25.80;;;;;;5006483;28;20799;-63
2023/03/01 06:35:55;;;;;;;27.77;17.33;;;1.70;26.00;;;;;;5003977;28;20506;-63
2023/03/01 06:38:22;;;;;;;31.00;18.27;;;1.90;26.20;;;;;;5003051;28;20811;-63
2023/03/01 06:40:53;;;;;;;26.60;15.70;;;1.70;25.80;;;;;;5016664;22;20517;-63
2023/03/01 06:43:22;;;;;;;29.13;16.70;;;1.70;26.00;;;;;;5025086;28;20848;-64
2023/03/01 06:45:48;;;;;;;28.20;17.10;;;1.60;25.70;;;;;;5024368;28;20908;-64
2023/03/01 06:48:15;;;;;;;26.17;16.80;;;1.60;25.70;;;;;;5019352;28;20467;-63
2023/03/01 06:50:42;;;;;;;30.70;18.07;;;1.70;25.80;;;;;;5013516;28;20491;-64
2023/03/01 06:53:09;;;;;;;29.07;16.90;;;1.70;25.70;;;;;;5008871;28;20459;-63
2023/03/01 06:55:36;;;;;;;28.83;17.13;;;1.70;25.50;;;;;;5011053;28;20458;-63
2023/03/01 06:58:03;;;;;;;33.20;18.73;;;1.70;25.60;;;;;;5006319;28;20468;-63
2023/03/01 07:00:32;;;;;;;28.83;18.13;;;1.70;25.60;;;;;;5003583;28;20894;-63
2023/03/01 07:03:01;;;;;;;28.70;18.23;;;1.70;25.70;;;;;;5007719;28;20488;-63
2023/03/01 07:05:28;;;;;;;26.83;16.40;;;1.80;25.40;;;;;;5003457;28;20534;-63
2023/03/01 07:07:56;;;;;;;24.87;17.13;;;1.80;25.10;;;;;;5002584;28;20456;-63
2023/03/01 07:10:23;;;;;;;25.80;15.90;;;1.90;25.00;;;;;;5005291;28;21197;-63
2023/03/01 07:12:49;;;;;;;32.13;18.23;;;1.90;24.90;;;;;;5006720;28;20460;-63
2023/03/01 07:15:16;;;;;;;28.50;17.13;;;1.90;25.00;;;;;;5005849;28;20468;-63
2023/03/01 07:17:47;;;;;;;31.03;18.00;;;1.90;24.90;;;;;;5001637;28;20468;-63
2023/03/01 07:20:15;;;;;;;29.17;17.23;;;2.00;24.80;;;;;;5003716;28;20484;-63
2023/03/01 07:22:42;;;;;;;31.80;19.30;;;1.90;24.40;;;;;;5008080;28;20475;-63
2023/03/01 07:25:09;;;;;;;30.30;20.40;;;1.90;24.20;;;;;;5004168;28;20459;-63
2023/03/01 07:27:36;;;;;;;26.27;16.70;;;1.90;24.10;;;;;;5005439;28;20471;-63
2023/03/01 07:30:04;;;;;;;26.57;16.50;;;1.90;24.30;;;;;;5005755;28;20516;-63
2023/03/01 07:32:31;;;;;;;30.20;17.90;;;2.00;24.20;;;;;;5008122;28;20483;-62
2023/03/01 07:34:59;;;;;;;26.73;18.60;;;2.00;24.70;;;;;;5007528;28;20468;-63
2023/03/01 07:37:25;;;;;;;29.10;18.20;;;2.00;23.90;;;;;;5006624;28;20459;-63
2023/03/01 07:39:52;;;;;;;29.00;18.53;;;2.00;23.90;;;;;;5004717;28;20491;-62
2023/03/01 07:42:19;;;;;;;31.23;17.20;;;2.00;23.70;;;;;;5006063;28;20460;-62
2023/03/01 07:44:46;;;;;;;27.30;16.60;;;2.10;23.80;;;;;;5004746;28;20460;-62
2023/03/01 07:47:13;;;;;;;32.97;19.07;;;2.00;23.80;;;;;;5004398;28;20468;-62
2023/03/01 07:49:39;;;;;;;27.87;16.70;;;2.00;24.00;;;;;;5008466;28;20983;-62
2023/03/01 07:52:10;;;;;;;27.10;18.40;;;2.00;24.00;;;;;;5008417;28;20867;-62
2023/03/01 07:54:36;;;;;;;26.33;17.17;;;2.00;24.00;;;;;;5007742;28;20463;-62
2023/03/01 07:57:03;;;;;;;27.23;18.53;;;2.10;23.80;;;;;;5011457;28;20455;-62
2023/03/01 07:59:33;;;;;;;26.23;17.90;;;2.30;23.70;;;;;;5007632;28;20490;-62
2023/03/01 08:02:00;;;;;;;30.00;18.20;;;2.20;23.10;;;;;;5009322;28;20471;-63
2023/03/01 08:04:27;;;;;;;25.60;17.13;;;2.20;23.20;;;;;;5008727;28;22674;-62
2023/03/01 08:06:54;;;;;;;25.70;16.23;;;2.20;22.80;;;;;;5004844;28;20808;-63
2023/03/01 08:09:23;;;;;;;25.03;16.77;;;2.30;22.90;;;;;;5005245;28;20506;-62
2023/03/01 08:11:49;;;;;;;28.60;17.90;;;2.30;22.60;;;;;;5004118;28;20451;-62
2023/03/01 08:14:16;;;;;;;28.20;16.97;;;2.30;22.80;;;;;;5005835;28;20459;-63
2023/03/01 08:16:43;;;;;;;31.07;18.70;;;2.20;22.50;;;;;;5005818;28;20460;-62
2023/03/01 08:19:11;;;;;;;30.47;20.43;;;2.30;22.70;;;;;;5005951;28;21030;-63
2023/03/01 08:21:38;;;;;;;27.43;18.37;;;2.30;22.20;;;;;;5006873;28;20470;-62
2023/03/01 08:24:07;;;;;;;28.87;18.83;;;2.40;22.40;;;;;;5012095;28;20479;-62
2023/03/01 08:26:35;;;;;;;31.60;17.40;;;2.50;22.40;;;;;;5003742;28;20847;-62
2023/03/01 08:29:02;;;;;;;27.13;17.73;;;2.60;21.60;;;;;;5006613;28;20533;-63
2023/03/01 08:31:30;;;;;;;24.50;16.13;;;2.70;21.30;;;;;;5008520;28;20566;-63
2023/03/01 08:33:59;;;;;;;26.23;17.57;;;2.80;21.00;;;;;;5006657;28;21141;-62
2023/03/01 08:36:27;;;;;;;26.27;17.07;;;2.80;20.90;;;;;;5008211;28;20460;-63
2023/03/01 08:38:55;;;;;;;27.53;17.90;;;2.90;20.70;;;;;;5009698;28;20495;-63
2023/03/01 08:41:22;;;;;;;29.40;18.10;;;2.90;20.30;;;;;;5007989;28;20455;-63
2023/03/01 08:43:50;;;;;;;28.90;18.40;;;2.90;20.70;;;;;;5011058;28;20486;-63
2023/03/01 08:46:17;;;;;;;25.17;16.50;;;2.90;20.90;;;;;;5008115;28;20503;-63
2023/03/01 08:48:43;;;;;;;32.23;17.30;;;2.90;20.90;;;;;;5007156;28;20459;-63
2023/03/01 08:51:12;;;;;;;32.27;18.33;;;3.00;20.50;;;;;;5011134;28;20478;-63
2023/03/01 08:53:39;;;;;;;33.70;18.47;;;3.00;20.00;;;;;;5007007;28;20464;-63
2023/03/01 08:56:07;;;;;;;28.33;17.57;;;3.00;20.10;;;;;;5004667;28;20460;-62
2023/03/01 08:58:34;;;;;;;27.97;16.93;;;3.00;19.80;;;;;;5005702;28;20460;-63
2023/03/01 09:01:07;;;;;;;31.83;17.87;;;3.00;19.90;;;;;;5008474;28;20995;-63
2023/03/01 09:03:34;;;;;;;30.87;18.13;;;3.10;20.00;;;;;;5007049;28;20488;-63
2023/03/01 09:06:01;;;;;;;30.33;19.00;;;3.10;19.90;;;;;;5007009;28;20464;-63
2023/03/01 09:08:28;;;;;;;26.17;16.47;;;3.10;19.60;;;;;;5004852;28;20500;-63
2023/03/01 09:10:55;;;;;;;28.80;16.53;;;3.10;19.60;;;;;;5008355;28;21062;-63
2023/03/01 09:13:23;;;;;;;28.63;18.40;;;3.10;19.80;;;;;;5006098;28;20547;-63
2023/03/01 09:15:50;;;;;;;30.43;17.60;;;3.10;19.60;;;;;;5006415;28;20468;-63
2023/03/01 09:18:18;;;;;;;28.40;17.67;;;3.20;20.00;;;;;;5005561;28;20475;-63
2023/03/01 09:20:45;;;;;;;28.80;17.57;;;3.30;19.60;;;;;;5009994;28;20994;-63
2023/03/01 09:23:11;;;;;;;29.17;16.80;;;3.20;19.50;;;;;;5008609;28;20966;-63
2023/03/01 09:25:38;;;;;;;24.83;17.33;;;3.20;19.60;;;;;;5004255;28;20468;-63
2023/03/01 09:28:05;;;;;;;35.33;18.30;;;3.30;19.50;;;;;;5006086;28;20479;-62
2023/03/01 09:30:32;;;;;;;30.27;17.50;;;3.30;19.50;;;;;;5007024;28;20897;-62
2023/03/01 09:32:58;;;;;;;28.37;19.07;;;3.40;19.40;;;;;;5009817;28;20448;-62
2023/03/01 09:35:27;;;;;;;27.20;17.47;;;3.40;19.50;;;;;;5007185;28;20467;-63
2023/03/01 09:37:54;;;;;;;27.33;17.97;;;3.50;19.60;;;;;;5006449;28;20460;-62
2023/03/01 09:40:25;;;;;;;32.60;17.63;;;3.50;19.40;;;;;;5008143;28;20487;-62
2023/03/01 09:43:09;;;;;;;30.57;16.83;;;3.50;19.60;;;;;;5003921;28;20949;-62
2023/03/01 09:45:40;;;;;;;28.77;16.93;;;3.50;19.20;;;;;;5009001;28;21001;-62
2023/03/01 09:48:13;;;;;;;32.03;18.03;;;3.40;19.40;;;;;;5010354;28;20460;-63
2023/03/01 09:50:46;;;;;;;31.40;17.57;;;3.30;19.70;;;;;;5008629;28;20484;-63
2023/03/01 09:53:16;;;;;;;27.57;18.00;;;3.40;19.90;;;;;;5004032;28;20471;-63
2023/03/01 09:55:46;;;;;;;28.30;18.20;;;3.40;19.90;;;;;;5002844;28;20468;-63
2023/03/01 09:58:32;;;;;;;24.00;15.70;;;3.50;20.00;;;;;;5007493;28;20547;-63
2023/03/01 10:01:04;;;;;;;29.30;18.03;;;3.60;20.00;;;;;;5008842;28;20478;-63
2023/03/01 10:03:40;;;;;;;33.10;18.53;;;3.60;19.80;;;;;;5012139;28;20493;-63
2023/03/01 10:06:15;;;;;;;25.10;16.70;;;3.60;19.80;;;;;;5010582;28;20466;-63
2023/03/01 10:08:47;;;;;;;28.70;17.63;;;3.80;19.80;;;;;;5007095;28;20951;-63
2023/03/01 10:11:22;;;;;;;29.03;17.83;;;3.90;19.40;;;;;;5011909;28;20444;-63
2023/03/01 10:13:55;;;;;;;29.93;16.57;;;4.00;18.90;;;;;;4999631;28;20458;-63
2023/03/01 10:16:27;;;;;;;30.23;18.40;;;4.00;18.90;;;;;;5010163;28;20962;-62
2023/03/01 10:19:00;;;;;;;30.93;19.40;;;4.20;18.90;;;;;;5005879;28;20484;-63
2023/03/01 10:21:31;;;;;;;29.87;17.63;;;4.30;18.80;;;;;;5002746;28;20843;-62
2023/03/01 10:24:04;;;;;;;26.00;16.53;;;4.50;18.10;;;;;;5005368;28;20727;-62
2023/03/01 10:26:45;;;;;;;27.23;16.10;;;4.30;18.00;;;;;;5010707;28;20458;-62
2023/03/01 10:29:13;;;;;;;27.53;16.27;;;4.40;18.00;;;;;;5003808;28;20575;-63
2023/03/01 10:31:43;;;;;;;29.30;17.87;;;4.40;18.20;;;;;;4998624;28;20519;-63
2023/03/01 10:34:16;;;;;;;28.70;17.57;;;4.50;18.10;;;;;;5004534;28;20472;-63
2023/03/01 10:36:45;;;;;;;26.83;17.63;;;4.70;17.70;;;;;;5005409;28;20471;-63
2023/03/01 10:39:18;;;;;;;30.80;16.00;;;4.60;17.40;;;;;;5010056;28;20491;-63
2023/03/01 10:42:03;;;;;;;25.33;17.37;;;4.50;17.20;;;;;;5008486;28;20464;-62
2023/03/01 10:44:42;;;;;;;30.20;19.10;;;4.50;17.00;;;;;;5006252;28;20474;-63
2023/03/01 10:47:20;;;;;;;29.67;18.33;;;4.50;17.20;;;;;;5009406;28;20956;-63
2023/03/01 10:49:54;;;;;;;29.80;17.93;;;4.60;17.40;;;;;;5006777;28;20479;-63
2023/03/01 10:52:25;;;;;;;28.80;17.73;;;4.60;17.20;;;;;;5008571;28;20467;-63
2023/03/01 10:54:56;;;;;;;31.40;19.00;;;4.60;17.20;;;;;;5009607;28;21237;-63
2023/03/01 10:57:35;;;;;;;29.27;18.07;;;4.80;16.70;;;;;;5008395;28;21134;-63
2023/03/01 11:00:25;;;;;;;27.93;18.57;;;5.40;16.60;;;;;;5006371;28;20486;-63
2023/03/01 11:03:09;;;;;;;28.20;17.70;;;6.40;14.70;;;;;;5004577;28;20478;-64
2023/03/01 11:05:35;;;;;;;26.03;17.27;;;6.80;13.10;;;;;;5009860;28;20492;-64
2023/03/01 11:08:04;;;;;;;28.13;17.90;;;6.80;12.60;;;;;;5008279;28;20471;-64
2023/03/01 11:10:33;;;;;;;32.90;21.30;;;7.00;13.20;;;;;;5007056;28;20558;-64
2023/03/01 11:13:08;;;;;;;28.27;18.20;;;7.60;13.00;;;;;;5009607;28;20455;-63
2023/03/01 11:15:35;;;;;;;24.63;17.70;;;7.80;11.40;;;;;;5007392;28;21034;-64
2023/03/01 11:18:03;;;;;;;28.90;19.20;;;8.10;11.50;;;;;;5004011;28;20491;-63
2023/03/01 11:20:32;;;;;;;27.23;17.73;;;8.40;10.90;;;;;;5005706;28;20478;-64
2023/03/01 11:23:03;;;;;;;25.13;18.10;;;8.80;10.40;;;;;;5004543;28;20460;-63
2023/03/01 11:25:36;;;;;;;28.47;17.80;;;9.00;8.90;;;;;;5010618;28;20566;-63
2023/03/01 11:28:04;;;;;;;28.07;18.80;;;9.30;9.70;;;;;;5006849;28;20463;-64
2023/03/01 11:30:36;;;;;;;28.27;20.73;;;10.00;9.80;;;;;;5019072;28;21073;-64
2023/03/01 11:33:18;;;;;;;26.63;18.80;;;10.70;8.60;;;;;;5013109;28;20463;-65
2023/03/01 11:35:54;;;;;;;24.83;19.60;;;11.40;7.20;;;;;;5007723;28;20455;-64
2023/03/01 11:38:23;;;;;;;23.50;17.40;;;11.90;5.80;;;;;;5011445;28;20463;-64
2023/03/01 11:40:58;;;;;;;26.23;17.60;;;12.20;4.20;;;;;;5013800;28;20483;-64
2023/03/01 11:43:34;;;;;;;25.47;19.40;;;12.20;2.50;;;;;;5009141;28;20509;-64
2023/03/01 11:46:28;;;;;;;24.23;18.30;;;12.20;3.20;;;;;;5014620;28;20459;-64
2023/03/01 11:49:05;;;;;;;22.90;17.87;;;12.30;3.20;;;;;;5012063;28;20975;-64
2023/03/01 11:51:43;;;;;;;24.67;18.60;;;12.60;4.00;;;;;;5012447;28;20978;-64
2023/03/01 11:54:34;;;;;;;25.17;19.17;;;13.20;2.90;;;;;;5013362;28;20452;-64
2023/03/01 11:57:12;;;;;;;24.93;18.30;;;14.00;2.10;;;;;;5011079;28;20467;-64
2023/03/01 11:59:54;;;;;;;22.97;19.00;;;14.40;1.00;;;;;;5012080;28;20494;-63
2023/03/01 12:02:47;;;;;;;26.43;19.13;;;14.10;1.00;;;;;;5006412;28;20476;-64
2023/03/01 12:05:50;;;;;;;25.17;20.87;;;13.90;1.00;;;;;;4971215;28;20490;-64
2023/03/01 12:08:24;;;;;;;26.77;17.97;;;14.20;1.00;;;;;;5009161;28;20455;-64
2023/03/01 12:11:03;;;;;;;22.90;17.93;;;14.20;1.00;;;;;;5012317;28;21006;-64
2023/03/01 12:14:08;;;;;;;22.30;18.30;;;13.90;1.00;;;;;;5011748;28;20468;-63
2023/03/01 12:16:50;;;;;;;25.20;18.43;;;13.30;1.00;;;;;;5006518;28;20454;-64
2023/03/01 12:19:39;;;;;;;25.37;19.57;;;13.20;1.00;;;;;;5010556;28;21033;-64
2023/03/01 12:22:21;;;;;;;23.37;18.30;;;13.20;1.00;;;;;;5011743;28;20451;-63
2023/03/01 12:25:13;;;;;;;23.53;18.23;;;13.40;1.20;;;;;;5005388;28;20483;-63
2023/03/01 12:27:55;;;;;;;23.57;18.60;;;13.40;1.00;;;;;;5002163;28;20475;-64
2023/03/01 12:30:35;;;;;;;25.00;19.20;;;13.30;1.40;;;;;;5007677;28;20486;-64
2023/03/01 12:33:14;;;;;;;22.47;17.60;;;13.50;1.50;;;;;;5009939;28;20466;-64
2023/03/01 12:35:59;;;;;;;27.57;18.03;;;13.50;1.30;;;;;;5010641;28;20456;-64
2023/03/01 12:38:35;;;;;;;24.50;19.27;;;13.70;1.60;;;;;;5010103;28;20469;-64
2023/03/01 12:41:32;;;;;;;22.80;16.90;;;13.80;1.10;;;;;;5030106;22;20561;-64
2023/03/01 12:44:13;;;;;;;23.80;19.50;;;13.70;1.00;;;;;;5026648;28;20482;-64
2023/03/01 12:46:52;;;;;;;21.77;16.20;;;13.50;1.50;;;;;;5024173;28;20570;-64
2023/03/01 12:49:24;;;;;;;22.63;18.17;;;13.40;1.50;;;;;;5019575;28;20459;-64
2023/03/01 12:51:55;;;;;;;23.93;18.23;;;13.20;2.80;;;;;;5024591;28;20971;-63
2023/03/01 12:54:27;;;;;;;28.50;19.67;;;12.60;2.70;;;;;;5022971;28;20463;-63